createdAt,value
2022-09-06T00:00:19.568Z,86.33110367892976
2022-09-06T00:06:41.277Z,83.60535117056857
2022-09-06T00:13:03.273Z,92.18729096989966
2022-09-06T00:19:25.450Z,90.94648829431438
2022-09-06T00:25:53.284Z,88.5886287625418
2022-09-06T00:34:15.930Z,95.78260869565217
2022-09-06T00:40:37.574Z,84.88628762541806
2022-09-06T00:46:59.443Z,90.29431438127091
2022-09-06T00:57:08.334Z,96.04682274247492
2022-09-06T01:03:30.667Z,91.78929765886288
2022-09-06T01:12:58.877Z,91.45150501672241
2022-09-06T01:19:20.578Z,90.59197324414716
2022-09-06T01:29:19.083Z,96.25752508361204
2022-09-06T01:35:40.736Z,93.07692307692308
2022-09-06T01:42:02.671Z,100.62207357859532
2022-09-06T01:48:30.290Z,95.99665551839465
2022-09-06T01:57:57.462Z,101.40468227424749
2022-09-06T02:04:19.297Z,93.89966555183946
2022-09-06T02:16:56.296Z,101.88963210702342
2022-09-06T02:23:21.944Z,95.83277591973244
2022-09-06T02:30:12.922Z,98.09698996655518
2022-09-06T02:36:34.613Z,98.00334448160535
2022-09-06T02:44:23.242Z,97.0133779264214
2022-09-06T02:50:44.710Z,98.8695652173913
2022-09-06T02:58:41.337Z,100.67224080267559
2022-09-06T03:06:52.625Z,106.08361204013377
2022-09-06T03:19:34.089Z,106.89966555183946
2022-09-06T03:26:04.849Z,101.64214046822742
2022-09-06T03:32:26.673Z,100.10702341137124
2022-09-06T03:41:48.829Z,104.66220735785953
2022-09-06T03:48:10.782Z,103.01003344481606
2022-09-06T03:54:32.383Z,106.0133779264214
2022-09-06T04:00:53.927Z,93.2675585284281
2022-09-06T04:07:15.508Z,95.19732441471572
2022-09-06T04:13:37.063Z,93.13377926421404
2022-09-06T04:19:58.682Z,95.50501672240803
2022-09-06T04:26:33.231Z,96.6923076923077
2022-09-06T04:32:55.061Z,90.05351170568562
2022-09-06T04:39:16.729Z,92.11371237458194
2022-09-06T04:45:38.517Z,92.58193979933111
2022-09-06T04:52:04.256Z,86.93645484949833
2022-09-06T04:58:41.467Z,90.36120401337793
2022-09-06T05:05:02.864Z,98.5685618729097
2022-09-06T05:11:24.577Z,95.876254180602
2022-09-06T05:17:46.176Z,99.91304347826087
2022-09-06T05:24:17.591Z,87.22408026755853
2022-09-06T05:36:11.494Z,96.33110367892976
2022-09-06T05:43:45.031Z,80.68896321070234
2022-09-06T05:54:43.703Z,84.79933110367892
2022-09-06T06:04:39.210Z,91.33110367892976
2022-09-06T06:11:01.713Z,83.99665551839465
2022-09-06T06:17:23.213Z,93.54180602006689
2022-09-06T06:23:55.157Z,92.46153846153847
2022-09-06T06:38:37.256Z,86.80602006688963
2022-09-06T06:44:59.166Z,78.11036789297658
2022-09-06T06:51:20.406Z,86.31438127090301
2022-09-06T07:02:51.715Z,74.64548494983278
2022-09-06T07:09:13.165Z,75.03678929765886
2022-09-06T07:26:16.699Z,75.47491638795987
2022-09-06T07:32:38.703Z,86.08695652173913
2022-09-06T07:54:19.417Z,68.17391304347827
2022-09-06T08:00:52.176Z,86.36120401337793
2022-09-06T08:07:40.136Z,78.60200668896321
2022-09-06T08:18:21.360Z,81.91973244147157
2022-09-06T08:26:02.840Z,72.61204013377926
2022-09-06T08:35:16.013Z,76.94314381270902
2022-09-06T08:51:50.789Z,73.0200668896321
2022-09-06T09:02:28.681Z,77.34782608695652
2022-09-06T09:08:52.001Z,77.34448160535118
2022-09-06T09:15:15.557Z,67.31438127090301
2022-09-06T09:21:37.881Z,74.45819397993311
2022-09-06T09:28:08.348Z,69.2809364548495
2022-09-06T09:34:35.666Z,71.05351170568562
2022-09-06T09:41:11.442Z,68.2675585284281
2022-09-06T09:47:33.115Z,66.00334448160535
2022-09-06T09:56:34.392Z,70.40802675585284
2022-09-06T10:02:58.728Z,65.2675585284281
2022-09-06T10:13:40.160Z,66.60200668896321
2022-09-06T10:20:05.919Z,74.32107023411372
2022-09-06T10:27:01.071Z,70.96655518394648
2022-09-06T10:33:23.585Z,70.40802675585284
2022-09-06T10:42:18.829Z,80.75919732441471
2022-09-06T10:48:41.471Z,86.32107023411372
2022-09-06T10:55:03.111Z,108.47826086956522
2022-09-06T11:01:24.893Z,95.29096989966555
2022-09-06T11:14:38.042Z,97.19397993311037
2022-09-06T11:21:00.227Z,99.52173913043478
2022-09-06T11:45:36.113Z,91.05016722408027
2022-09-06T11:51:58.157Z,91.82608695652173
2022-09-06T11:58:20.646Z,92.3076923076923
2022-09-06T12:04:42.760Z,90.66220735785953
2022-09-06T12:11:04.876Z,85.59866220735786
2022-09-06T12:22:53.550Z,79.59197324414716
2022-09-06T12:29:17.277Z,82.77926421404682
2022-09-06T12:35:58.151Z,81.27090301003345
2022-09-06T12:42:24.600Z,80.61872909698997
2022-09-06T12:48:46.419Z,77.1371237458194
2022-09-06T12:55:07.851Z,81.3076923076923
2022-09-06T13:01:29.691Z,81.48160535117057
2022-09-06T13:07:52.187Z,78.29431438127091
2022-09-06T13:14:14.521Z,79.1371237458194
2022-09-06T13:25:36.939Z,72.92642140468227
2022-09-06T13:32:03.731Z,70.35785953177258
2022-09-06T13:38:36.361Z,68.93979933110369
2022-09-06T13:48:03.510Z,57.24414715719063
2022-09-06T13:54:44.104Z,66.34782608695652
2022-09-06T14:05:10.772Z,64.21739130434783
2022-09-06T14:11:37.727Z,66.79598662207358
2022-09-06T14:18:00.319Z,58.137123745819395
2022-09-06T14:24:31.903Z,62.67224080267559
2022-09-06T14:30:56.035Z,61.50167224080268
2022-09-06T14:42:50.820Z,66.58193979933111
2022-09-06T14:51:27.090Z,68.78260869565217
2022-09-06T14:58:45.185Z,71.03344481605352
2022-09-06T15:05:42.398Z,76.40468227424749
2022-09-06T15:23:42.140Z,71.13377926421404
2022-09-06T15:30:04.161Z,75.81270903010034
2022-09-06T15:36:27.823Z,68.78260869565217
2022-09-06T15:43:18.788Z,65.6923076923077
2022-09-06T15:49:41.027Z,65.06020066889631
2022-09-06T15:56:04.560Z,64.57190635451505
2022-09-06T16:02:32.198Z,64.94648829431438
2022-09-06T16:08:55.805Z,63.82943143812709
2022-09-06T16:15:18.753Z,70.46822742474916
2022-09-06T16:21:44.289Z,66.88294314381271
2022-09-06T16:28:18.923Z,66.67892976588628
2022-09-06T16:34:52.175Z,70.24414715719064
2022-09-06T16:41:21.214Z,71.24749163879599
2022-09-06T16:47:47.100Z,66.59866220735786
2022-09-06T16:54:15.368Z,73.40802675585284
2022-09-06T17:00:40.851Z,67.11371237458194
2022-09-06T17:07:06.181Z,69.44147157190635
2022-09-06T17:13:30.772Z,63.37792642140468
2022-09-06T17:19:55.737Z,59.163879598662206
2022-09-06T17:26:26.533Z,67.27090301003345
2022-09-06T17:33:13.874Z,67.40133779264214
2022-09-06T17:40:42.067Z,64.20066889632108
2022-09-06T17:47:13.362Z,59.37792642140468
2022-09-06T17:53:36.252Z,82.48829431438126
2022-09-06T17:59:59.230Z,67.96655518394648
2022-09-06T18:11:17.523Z,76.21739130434783
2022-09-06T18:17:39.152Z,73.39799331103679
2022-09-06T18:24:12.581Z,75.08695652173913
2022-09-06T18:36:09.877Z,72.61204013377926
2022-09-06T18:42:32.368Z,83.78260869565217
2022-09-06T18:48:57.025Z,77.01003344481606
2022-09-06T18:55:23.216Z,83.72909698996655
2022-09-06T19:01:48.395Z,80.19732441471572
2022-09-06T19:10:34.678Z,79.2675585284281
2022-09-06T19:17:01.088Z,81.93979933110369
2022-09-06T19:23:31.173Z,80.26086956521739
2022-09-06T19:32:00.667Z,89.52508361204013
2022-09-06T19:39:01.452Z,99.79933110367892
2022-09-06T19:45:31.285Z,86.29431438127091
2022-09-06T19:52:02.065Z,98.31772575250837
2022-09-06T19:58:39.034Z,87.44147157190635
2022-09-06T20:05:09.001Z,96.08026755852843
2022-09-06T20:11:40.134Z,94.22408026755853
2022-09-06T20:18:11.823Z,99.90635451505017
2022-09-06T20:24:40.229Z,92.5351170568562
2022-09-06T20:31:03.910Z,85.61872909698997
2022-09-06T20:41:07.184Z,87.21404682274247
2022-09-06T20:47:33.558Z,91.4314381270903
2022-09-06T20:55:10.446Z,99.22073578595318
2022-09-06T21:03:43.358Z,92.123745819398
2022-09-06T21:10:04.844Z,89.73913043478261
2022-09-06T21:16:26.329Z,99.28428093645485
2022-09-06T21:22:49.066Z,91.67892976588628
2022-09-06T21:29:14.600Z,89.876254180602
2022-09-06T21:35:36.303Z,97.1371237458194
2022-09-06T21:44:34.436Z,92.09030100334448
2022-09-06T21:59:50.301Z,99.68227424749163
2022-09-06T22:06:12.487Z,99.33779264214047
2022-09-06T22:12:33.246Z,101.39464882943143
2022-09-06T22:18:54.402Z,100.80267558528428
2022-09-06T22:29:53.495Z,97.05685618729098
2022-09-06T22:37:32.804Z,103.6923076923077
2022-09-06T22:52:59.134Z,99.77257525083613
2022-09-06T22:59:20.759Z,96.6989966555184
2022-09-06T23:05:41.531Z,106.88294314381271
2022-09-06T23:12:02.766Z,104.24080267558529
2022-09-06T23:18:24.019Z,99.33110367892976
2022-09-06T23:24:53.647Z,96.77926421404682
2022-09-06T23:31:14.568Z,102.92307692307692
2022-09-06T23:39:57.585Z,110.59866220735786
2022-09-06T23:51:43.534Z,105.60200668896321
2022-09-06T23:58:04.477Z,108.12709030100335
